sensor_id;sensor_type;location;lat;lon;timestamp;P1;durP1;ratioP1;P2;durP2;ratioP2
29006;SDS011;16104;48.642;9.008;2022-08-26T01:01:42;3.90;;;3.60;;
29006;SDS011;16104;48.642;9.008;2022-08-26T01:06:39;6.13;;;3.75;;
29006;SDS011;16104;48.642;9.008;2022-08-26T01:11:35;4.13;;;3.55;;
29006;SDS011;16104;48.642;9.008;2022-08-26T02:02:19;4.72;;;4.22;;
29006;SDS011;16104;48.642;9.008;2022-08-26T02:07:15;4.53;;;4.13;;
29006;SDS011;16104;48.642;9.008;2022-08-26T02:12:13;5.38;;;4.00;;
29006;SDS011;16104;48.642;9.008;2022-08-26T03:02:58;4.93;;;4.45;;
29006;SDS011;16104;48.642;9.008;2022-08-26T03:07:54;4.80;;;4.30;;
29006;SDS011;16104;48.642;9.008;2022-08-26T03:12:50;4.45;;;4.05;;
29006;SDS011;16104;48.642;9.008;2022-08-26T03:17:45;4.50;;;4.10;;
29006;SDS011;16104;48.642;9.008;2022-08-26T03:22:42;5.03;;;4.15;;
29006;SDS011;16104;48.642;9.008;2022-08-26T03:27:37;4.78;;;4.03;;
29006;SDS011;16104;48.642;9.008;2022-08-26T03:32:32;4.68;;;4.25;;
29006;SDS011;16104;48.642;9.008;2022-08-26T03:37:28;4.53;;;4.13;;
29006;SDS011;16104;48.642;9.008;2022-08-26T03:42:23;7.50;;;4.75;;
29006;SDS011;16104;48.642;9.008;2022-08-26T03:47:19;4.68;;;4.22;;
29006;SDS011;16104;48.642;9.008;2022-08-26T03:52:15;5.35;;;4.85;;
29006;SDS011;16104;48.642;9.008;2022-08-26T03:57:10;5.10;;;4.60;;
29006;SDS011;16104;48.642;9.008;2022-08-26T04:02:06;4.80;;;4.05;;
29006;SDS011;16104;48.642;9.008;2022-08-26T04:07:01;4.43;;;4.03;;
29006;SDS011;16104;48.642;9.008;2022-08-26T04:11:57;4.43;;;4.03;;
29006;SDS011;16104;48.642;9.008;2022-08-26T04:16:53;5.45;;;4.75;;
29006;SDS011;16104;48.642;9.008;2022-08-26T04:21:49;4.82;;;4.30;;
29006;SDS011;16104;48.642;9.008;2022-08-26T04:26:47;4.72;;;4.32;;
29006;SDS011;16104;48.642;9.008;2022-08-26T04:31:43;5.03;;;4.57;;
29006;SDS011;16104;48.642;9.008;2022-08-26T04:36:39;7.13;;;5.03;;
29006;SDS011;16104;48.642;9.008;2022-08-26T04:41:35;5.15;;;4.65;;
29006;SDS011;16104;48.642;9.008;2022-08-26T04:46:31;7.18;;;4.60;;
29006;SDS011;16104;48.642;9.008;2022-08-26T04:51:27;5.85;;;4.90;;
29006;SDS011;16104;48.642;9.008;2022-08-26T04:56:23;5.45;;;4.88;;
29006;SDS011;16104;48.642;9.008;2022-08-26T05:01:20;5.25;;;4.70;;
29006;SDS011;16104;48.642;9.008;2022-08-26T05:06:16;5.57;;;5.07;;
29006;SDS011;16104;48.642;9.008;2022-08-26T05:11:13;6.00;;;5.40;;
29006;SDS011;16104;48.642;9.008;2022-08-26T05:16:10;6.63;;;5.50;;
29006;SDS011;16104;48.642;9.008;2022-08-26T05:21:07;5.57;;;5.07;;
29006;SDS011;16104;48.642;9.008;2022-08-26T05:26:09;9.02;;;5.47;;
29006;SDS011;16104;48.642;9.008;2022-08-26T05:31:15;7.15;;;5.75;;
29006;SDS011;16104;48.642;9.008;2022-08-26T05:36:16;6.18;;;5.57;;
29006;SDS011;16104;48.642;9.008;2022-08-26T05:41:15;7.00;;;5.63;;
29006;SDS011;16104;48.642;9.008;2022-08-26T05:46:13;8.57;;;5.03;;
29006;SDS011;16104;48.642;9.008;2022-08-26T05:51:09;5.38;;;4.57;;
29006;SDS011;16104;48.642;9.008;2022-08-26T05:56:06;7.47;;;5.15;;
29006;SDS011;16104;48.642;9.008;2022-08-26T06:01:04;5.47;;;4.97;;
29006;SDS011;16104;48.642;9.008;2022-08-26T06:06:05;9.10;;;5.33;;
29006;SDS011;16104;48.642;9.008;2022-08-26T06:11:04;7.07;;;4.88;;
29006;SDS011;16104;48.642;9.008;2022-08-26T06:16:03;6.87;;;5.30;;
29006;SDS011;16104;48.642;9.008;2022-08-26T06:21:09;9.85;;;5.78;;
29006;SDS011;16104;48.642;9.008;2022-08-26T06:26:16;5.82;;;4.63;;
29006;SDS011;16104;48.642;9.008;2022-08-26T06:31:12;6.13;;;5.53;;
29006;SDS011;16104;48.642;9.008;2022-08-26T06:36:08;8.95;;;5.43;;
29006;SDS011;16104;48.642;9.008;2022-08-26T06:41:08;5.90;;;4.63;;
29006;SDS011;16104;48.642;9.008;2022-08-26T06:46:06;6.38;;;5.40;;
29006;SDS011;16104;48.642;9.008;2022-08-26T06:56:04;5.40;;;4.63;;
29006;SDS011;16104;48.642;9.008;2022-08-26T07:01:01;10.20;;;5.80;;
29006;SDS011;16104;48.642;9.008;2022-08-26T07:06:00;11.55;;;6.03;;
29006;SDS011;16104;48.642;9.008;2022-08-26T07:10:57;5.95;;;5.13;;
29006;SDS011;16104;48.642;9.008;2022-08-26T07:15:53;8.45;;;5.60;;
29006;SDS011;16104;48.642;9.008;2022-08-26T07:20:50;6.25;;;4.90;;
29006;SDS011;16104;48.642;9.008;2022-08-26T07:25:46;5.35;;;4.85;;
29006;SDS011;16104;48.642;9.008;2022-08-26T07:30:41;5.93;;;5.18;;
29006;SDS011;16104;48.642;9.008;2022-08-26T07:35:37;7.25;;;5.07;;
29006;SDS011;16104;48.642;9.008;2022-08-26T07:40:33;5.95;;;5.30;;
29006;SDS011;16104;48.642;9.008;2022-08-26T07:45:28;5.90;;;5.30;;
29006;SDS011;16104;48.642;9.008;2022-08-26T07:50:24;6.55;;;4.85;;
29006;SDS011;16104;48.642;9.008;2022-08-26T07:55:19;5.18;;;4.40;;
29006;SDS011;16104;48.642;9.008;2022-08-26T08:00:16;4.50;;;4.10;;
29006;SDS011;16104;48.642;9.008;2022-08-26T08:05:13;8.60;;;4.63;;
29006;SDS011;16104;48.642;9.008;2022-08-26T08:10:15;6.27;;;3.80;;
29006;SDS011;16104;48.642;9.008;2022-08-26T08:15:14;6.70;;;4.25;;
29006;SDS011;16104;48.642;9.008;2022-08-26T08:20:14;5.53;;;4.03;;
29006;SDS011;16104;48.642;9.008;2022-08-26T08:25:10;5.32;;;4.15;;
29006;SDS011;16104;48.642;9.008;2022-08-26T08:30:07;5.45;;;4.00;;
29006;SDS011;16104;48.642;9.008;2022-08-26T08:35:04;5.80;;;4.15;;
29006;SDS011;16104;48.642;9.008;2022-08-26T08:40:02;4.68;;;3.65;;
29006;SDS011;16104;48.642;9.008;2022-08-26T08:45:01;6.03;;;3.88;;
29006;SDS011;16104;48.642;9.008;2022-08-26T08:50:19;5.55;;;3.72;;
29006;SDS011;16104;48.642;9.008;2022-08-26T08:55:23;5.25;;;3.97;;
29006;SDS011;16104;48.642;9.008;2022-08-26T09:00:22;7.68;;;4.30;;
29006;SDS011;16104;48.642;9.008;2022-08-26T09:05:27;5.95;;;4.30;;
29006;SDS011;16104;48.642;9.008;2022-08-26T09:10:40;5.53;;;4.18;;
29006;SDS011;16104;48.642;9.008;2022-08-26T09:15:51;8.15;;;4.35;;
29006;SDS011;16104;48.642;9.008;2022-08-26T09:20:52;11.02;;;5.13;;
29006;SDS011;16104;48.642;9.008;2022-08-26T09:25:53;5.35;;;4.05;;
29006;SDS011;16104;48.642;9.008;2022-08-26T09:31:10;6.75;;;4.43;;
29006;SDS011;16104;48.642;9.008;2022-08-26T09:36:19;7.05;;;4.72;;
29006;SDS011;16104;48.642;9.008;2022-08-26T09:41:29;10.10;;;4.60;;
29006;SDS011;16104;48.642;9.008;2022-08-26T09:46:26;7.82;;;4.70;;
29006;SDS011;16104;48.642;9.008;2022-08-26T09:51:30;5.47;;;4.53;;
29006;SDS011;16104;48.642;9.008;2022-08-26T09:56:30;6.55;;;4.57;;
29006;SDS011;16104;48.642;9.008;2022-08-26T10:01:32;8.10;;;4.68;;
29006;SDS011;16104;48.642;9.008;2022-08-26T10:06:29;11.73;;;5.20;;
29006;SDS011;16104;48.642;9.008;2022-08-26T10:16:38;10.95;;;5.05;;
29006;SDS011;16104;48.642;9.008;2022-08-26T10:21:44;8.07;;;4.85;;
29006;SDS011;16104;48.642;9.008;2022-08-26T10:26:57;7.10;;;4.22;;
29006;SDS011;16104;48.642;9.008;2022-08-26T10:32:11;4.93;;;3.78;;
29006;SDS011;16104;48.642;9.008;2022-08-26T10:37:21;8.20;;;5.05;;
29006;SDS011;16104;48.642;9.008;2022-08-26T10:42:41;5.78;;;4.22;;
29006;SDS011;16104;48.642;9.008;2022-08-26T10:57:56;8.18;;;4.35;;
29006;SDS011;16104;48.642;9.008;2022-08-26T11:03:02;9.00;;;4.90;;
29006;SDS011;16104;48.642;9.008;2022-08-26T11:08:26;10.20;;;5.03;;
29006;SDS011;16104;48.642;9.008;2022-08-26T11:14:24;9.05;;;4.95;;
29006;SDS011;16104;48.642;9.008;2022-08-26T11:18:57;9.63;;;4.68;;
29006;SDS011;16104;48.642;9.008;2022-08-26T11:23:52;7.72;;;4.57;;
29006;SDS011;16104;48.642;9.008;2022-08-26T11:28:48;7.03;;;4.25;;
29006;SDS011;16104;48.642;9.008;2022-08-26T11:33:48;7.30;;;4.15;;
29006;SDS011;16104;48.642;9.008;2022-08-26T11:38:46;4.97;;;3.95;;
29006;SDS011;16104;48.642;9.008;2022-08-26T11:43:42;8.15;;;3.95;;
29006;SDS011;16104;48.642;9.008;2022-08-26T11:48:40;9.10;;;4.63;;
29006;SDS011;16104;48.642;9.008;2022-08-26T11:53:38;9.73;;;4.38;;
29006;SDS011;16104;48.642;9.008;2022-08-26T11:58:40;12.63;;;4.95;;
29006;SDS011;16104;48.642;9.008;2022-08-26T12:08:40;5.35;;;3.70;;
29006;SDS011;16104;48.642;9.008;2022-08-26T12:13:38;8.98;;;4.63;;
29006;SDS011;16104;48.642;9.008;2022-08-26T12:18:35;7.18;;;4.18;;
29006;SDS011;16104;48.642;9.008;2022-08-26T12:23:40;4.15;;;3.53;;
29006;SDS011;16104;48.642;9.008;2022-08-26T12:28:46;5.38;;;4.13;;
29006;SDS011;16104;48.642;9.008;2022-08-26T12:33:44;6.80;;;4.25;;
29006;SDS011;16104;48.642;9.008;2022-08-26T12:38:41;7.32;;;4.10;;
29006;SDS011;16104;48.642;9.008;2022-08-26T12:43:43;6.93;;;4.75;;
29006;SDS011;16104;48.642;9.008;2022-08-26T12:48:40;9.05;;;4.00;;
29006;SDS011;16104;48.642;9.008;2022-08-26T12:53:40;8.68;;;4.70;;
29006;SDS011;16104;48.642;9.008;2022-08-26T12:58:37;5.33;;;4.03;;
29006;SDS011;16104;48.642;9.008;2022-08-26T13:08:29;9.10;;;4.50;;
29006;SDS011;16104;48.642;9.008;2022-08-26T13:13:25;6.22;;;4.40;;
29006;SDS011;16104;48.642;9.008;2022-08-26T13:18:20;9.20;;;4.73;;
29006;SDS011;16104;48.642;9.008;2022-08-26T13:23:16;8.00;;;4.38;;
29006;SDS011;16104;48.642;9.008;2022-08-26T13:28:13;8.13;;;4.37;;
29006;SDS011;16104;48.642;9.008;2022-08-26T13:33:09;9.00;;;5.00;;
29006;SDS011;16104;48.642;9.008;2022-08-26T13:38:05;9.63;;;4.60;;
29006;SDS011;16104;48.642;9.008;2022-08-26T13:43:03;5.47;;;4.60;;
29006;SDS011;16104;48.642;9.008;2022-08-26T13:47:59;9.07;;;4.43;;
29006;SDS011;16104;48.642;9.008;2022-08-26T13:52:54;6.22;;;4.30;;
29006;SDS011;16104;48.642;9.008;2022-08-26T13:57:50;9.70;;;3.88;;
29006;SDS011;16104;48.642;9.008;2022-08-26T14:02:46;6.35;;;3.90;;
29006;SDS011;16104;48.642;9.008;2022-08-26T14:07:41;10.70;;;4.60;;
29006;SDS011;16104;48.642;9.008;2022-08-26T14:12:37;11.05;;;4.20;;
29006;SDS011;16104;48.642;9.008;2022-08-26T14:17:33;9.88;;;4.25;;
29006;SDS011;16104;48.642;9.008;2022-08-26T14:22:30;4.43;;;3.90;;
29006;SDS011;16104;48.642;9.008;2022-08-26T14:27:26;4.07;;;3.60;;
29006;SDS011;16104;48.642;9.008;2022-08-26T14:32:26;9.88;;;4.55;;
29006;SDS011;16104;48.642;9.008;2022-08-26T14:37:23;7.40;;;3.78;;
29006;SDS011;16104;48.642;9.008;2022-08-26T14:42:19;4.80;;;3.17;;
29006;SDS011;16104;48.642;9.008;2022-08-26T14:47:17;4.97;;;3.30;;
29006;SDS011;16104;48.642;9.008;2022-08-26T14:52:13;6.50;;;3.70;;
29006;SDS011;16104;48.642;9.008;2022-08-26T14:57:09;10.13;;;4.65;;
29006;SDS011;16104;48.642;9.008;2022-08-26T15:02:08;6.00;;;4.20;;
29006;SDS011;16104;48.642;9.008;2022-08-26T15:07:06;8.18;;;5.30;;
29006;SDS011;16104;48.642;9.008;2022-08-26T15:12:03;8.02;;;4.10;;
29006;SDS011;16104;48.642;9.008;2022-08-26T15:16:59;6.20;;;3.58;;
29006;SDS011;16104;48.642;9.008;2022-08-26T15:21:55;6.65;;;4.40;;
29006;SDS011;16104;48.642;9.008;2022-08-26T15:26:51;5.78;;;4.03;;
29006;SDS011;16104;48.642;9.008;2022-08-26T15:31:47;6.55;;;4.10;;
29006;SDS011;16104;48.642;9.008;2022-08-26T15:36:43;9.20;;;4.13;;
29006;SDS011;16104;48.642;9.008;2022-08-26T15:41:40;7.05;;;3.65;;
29006;SDS011;16104;48.642;9.008;2022-08-26T15:46:36;6.72;;;4.32;;
29006;SDS011;16104;48.642;9.008;2022-08-26T15:51:34;6.10;;;3.65;;
29006;SDS011;16104;48.642;9.008;2022-08-26T15:56:33;8.32;;;3.30;;
29006;SDS011;16104;48.642;9.008;2022-08-26T16:01:30;7.17;;;3.20;;
29006;SDS011;16104;48.642;9.008;2022-08-26T16:06:28;8.60;;;3.08;;
29006;SDS011;16104;48.642;9.008;2022-08-26T16:11:26;3.60;;;2.67;;
29006;SDS011;16104;48.642;9.008;2022-08-26T16:16:22;2.88;;;2.42;;
29006;SDS011;16104;48.642;9.008;2022-08-26T16:21:20;32.83;;;3.97;;
29006;SDS011;16104;48.642;9.008;2022-08-26T16:31:14;3.33;;;2.53;;
29006;SDS011;16104;48.642;9.008;2022-08-26T16:36:10;5.30;;;2.67;;
29006;SDS011;16104;48.642;9.008;2022-08-26T16:41:07;8.27;;;3.40;;
29006;SDS011;16104;48.642;9.008;2022-08-26T16:46:05;5.75;;;3.08;;
29006;SDS011;16104;48.642;9.008;2022-08-26T16:51:01;6.20;;;4.07;;
29006;SDS011;16104;48.642;9.008;2022-08-26T16:55:57;6.00;;;3.92;;
29006;SDS011;16104;48.642;9.008;2022-08-26T17:00:52;6.97;;;4.32;;
29006;SDS011;16104;48.642;9.008;2022-08-26T17:05:48;9.13;;;4.10;;
29006;SDS011;16104;48.642;9.008;2022-08-26T17:10:43;6.05;;;4.38;;
29006;SDS011;16104;48.642;9.008;2022-08-26T17:15:39;6.78;;;5.05;;
29006;SDS011;16104;48.642;9.008;2022-08-26T17:20:34;7.75;;;4.50;;
29006;SDS011;16104;48.642;9.008;2022-08-26T17:25:30;5.57;;;4.22;;
29006;SDS011;16104;48.642;9.008;2022-08-26T17:30:26;4.32;;;3.80;;
29006;SDS011;16104;48.642;9.008;2022-08-26T17:35:22;6.45;;;3.67;;
29006;SDS011;16104;48.642;9.008;2022-08-26T17:40:20;4.88;;;3.05;;
29006;SDS011;16104;48.642;9.008;2022-08-26T17:45:17;3.55;;;2.90;;
29006;SDS011;16104;48.642;9.008;2022-08-26T17:50:14;5.40;;;2.58;;
29006;SDS011;16104;48.642;9.008;2022-08-26T17:55:13;3.25;;;2.35;;
29006;SDS011;16104;48.642;9.008;2022-08-26T18:00:11;3.10;;;2.40;;
29006;SDS011;16104;48.642;9.008;2022-08-26T18:05:10;2.70;;;2.50;;
29006;SDS011;16104;48.642;9.008;2022-08-26T18:10:08;5.10;;;2.95;;
29006;SDS011;16104;48.642;9.008;2022-08-26T18:15:04;5.78;;;2.72;;
29006;SDS011;16104;48.642;9.008;2022-08-26T18:20:00;6.07;;;2.97;;
29006;SDS011;16104;48.642;9.008;2022-08-26T18:24:55;5.40;;;3.47;;
29006;SDS011;16104;48.642;9.008;2022-08-26T18:29:51;5.18;;;3.45;;
29006;SDS011;16104;48.642;9.008;2022-08-26T18:34:47;5.15;;;3.10;;
29006;SDS011;16104;48.642;9.008;2022-08-26T18:39:42;7.60;;;4.57;;
29006;SDS011;16104;48.642;9.008;2022-08-26T18:44:38;10.40;;;4.65;;
29006;SDS011;16104;48.642;9.008;2022-08-26T18:49:33;5.40;;;3.92;;
29006;SDS011;16104;48.642;9.008;2022-08-26T18:54:29;14.65;;;9.00;;
29006;SDS011;16104;48.642;9.008;2022-08-26T18:59:25;16.92;;;8.23;;
29006;SDS011;16104;48.642;9.008;2022-08-26T19:04:20;8.98;;;5.07;;
29006;SDS011;16104;48.642;9.008;2022-08-26T19:09:16;5.85;;;3.30;;
29006;SDS011;16104;48.642;9.008;2022-08-26T19:14:13;4.00;;;3.10;;
29006;SDS011;16104;48.642;9.008;2022-08-26T19:19:10;6.57;;;3.50;;
29006;SDS011;16104;48.642;9.008;2022-08-26T19:24:07;7.40;;;3.60;;
29006;SDS011;16104;48.642;9.008;2022-08-26T19:29:09;6.05;;;3.38;;
29006;SDS011;16104;48.642;9.008;2022-08-26T19:34:05;6.20;;;3.10;;
29006;SDS011;16104;48.642;9.008;2022-08-26T19:39:01;5.50;;;3.13;;
29006;SDS011;16104;48.642;9.008;2022-08-26T19:44:00;3.42;;;3.05;;
29006;SDS011;16104;48.642;9.008;2022-08-26T19:48:56;4.45;;;2.92;;
29006;SDS011;16104;48.642;9.008;2022-08-26T19:53:52;3.30;;;2.92;;
29006;SDS011;16104;48.642;9.008;2022-08-26T19:58:50;4.07;;;3.33;;
29006;SDS011;16104;48.642;9.008;2022-08-26T20:03:45;5.20;;;3.33;;
29006;SDS011;16104;48.642;9.008;2022-08-26T20:08:42;4.00;;;3.40;;
29006;SDS011;16104;48.642;9.008;2022-08-26T20:13:38;3.42;;;3.13;;
29006;SDS011;16104;48.642;9.008;2022-08-26T20:18:33;5.00;;;3.60;;
29006;SDS011;16104;48.642;9.008;2022-08-26T20:23:48;4.43;;;3.08;;
29006;SDS011;16104;48.642;9.008;2022-08-26T20:28:45;3.42;;;3.08;;
29006;SDS011;16104;48.642;9.008;2022-08-26T20:33:40;5.43;;;3.22;;
29006;SDS011;16104;48.642;9.008;2022-08-26T20:38:37;3.50;;;2.70;;
29006;SDS011;16104;48.642;9.008;2022-08-26T20:43:32;4.20;;;3.60;;
29006;SDS011;16104;48.642;9.008;2022-08-26T20:48:28;3.35;;;3.03;;
29006;SDS011;16104;48.642;9.008;2022-08-26T20:53:24;4.95;;;3.60;;
29006;SDS011;16104;48.642;9.008;2022-08-26T20:58:22;3.92;;;3.53;;
29006;SDS011;16104;48.642;9.008;2022-08-26T21:03:17;4.53;;;3.83;;
29006;SDS011;16104;48.642;9.008;2022-08-26T21:08:13;5.68;;;3.70;;
29006;SDS011;16104;48.642;9.008;2022-08-26T21:13:08;4.63;;;3.95;;
29006;SDS011;16104;48.642;9.008;2022-08-26T21:18:05;3.80;;;3.50;;
29006;SDS011;16104;48.642;9.008;2022-08-26T21:23:02;5.28;;;4.13;;
29006;SDS011;16104;48.642;9.008;2022-08-26T21:27:58;5.28;;;3.83;;
29006;SDS011;16104;48.642;9.008;2022-08-26T21:32:53;5.93;;;4.28;;
29006;SDS011;16104;48.642;9.008;2022-08-26T21:37:49;4.20;;;3.75;;
29006;SDS011;16104;48.642;9.008;2022-08-26T21:42:44;4.35;;;3.95;;
29006;SDS011;16104;48.642;9.008;2022-08-26T21:47:40;5.68;;;4.40;;
29006;SDS011;16104;48.642;9.008;2022-08-26T21:52:36;5.43;;;4.45;;
29006;SDS011;16104;48.642;9.008;2022-08-26T21:57:32;5.72;;;4.22;;
29006;SDS011;16104;48.642;9.008;2022-08-26T22:02:27;4.95;;;3.90;;
29006;SDS011;16104;48.642;9.008;2022-08-26T22:07:23;5.00;;;4.20;;
29006;SDS011;16104;48.642;9.008;2022-08-26T22:12:18;4.57;;;4.18;;
29006;SDS011;16104;48.642;9.008;2022-08-26T22:17:14;5.55;;;4.72;;
29006;SDS011;16104;48.642;9.008;2022-08-26T22:22:10;8.15;;;5.88;;
29006;SDS011;16104;48.642;9.008;2022-08-26T22:27:06;5.40;;;4.90;;
29006;SDS011;16104;48.642;9.008;2022-08-26T22:32:02;6.72;;;5.57;;
29006;SDS011;16104;48.642;9.008;2022-08-26T22:36:58;6.32;;;5.63;;
29006;SDS011;16104;48.642;9.008;2022-08-26T22:41:54;6.10;;;5.15;;
29006;SDS011;16104;48.642;9.008;2022-08-26T22:46:50;6.20;;;5.32;;
29006;SDS011;16104;48.642;9.008;2022-08-26T22:51:48;6.82;;;4.68;;
29006;SDS011;16104;48.642;9.008;2022-08-26T22:56:44;6.65;;;5.15;;
29006;SDS011;16104;48.642;9.008;2022-08-26T23:01:41;5.35;;;4.85;;
29006;SDS011;16104;48.642;9.008;2022-08-26T23:06:38;8.23;;;5.18;;
29006;SDS011;16104;48.642;9.008;2022-08-26T23:11:35;8.45;;;6.70;;
29006;SDS011;16104;48.642;9.008;2022-08-26T23:16:34;7.30;;;5.63;;
29006;SDS011;16104;48.642;9.008;2022-08-26T23:21:31;7.22;;;5.82;;
29006;SDS011;16104;48.642;9.008;2022-08-26T23:26:27;6.68;;;5.97;;
29006;SDS011;16104;48.642;9.008;2022-08-26T23:31:22;8.77;;;6.45;;
29006;SDS011;16104;48.642;9.008;2022-08-26T23:36:18;8.90;;;6.97;;
29006;SDS011;16104;48.642;9.008;2022-08-26T23:41:14;11.75;;;8.38;;
29006;SDS011;16104;48.642;9.008;2022-08-26T23:46:10;10.95;;;8.10;;
29006;SDS011;16104;48.642;9.008;2022-08-26T23:51:05;12.50;;;9.45;;
29006;SDS011;16104;48.642;9.008;2022-08-26T23:56:20;12.38;;;8.95;;
